createdAt,value
2024-01-18T00:00:55.434Z,0.50
2024-01-18T00:01:55.386Z,0.51
2024-01-18T00:02:55.644Z,0.50
2024-01-18T00:03:55.767Z,0.50
2024-01-18T00:04:55.377Z,0.51
2024-01-18T00:05:55.461Z,0.50
2024-01-18T00:06:55.499Z,0.51
2024-01-18T00:07:55.400Z,0.52
2024-01-18T00:08:55.446Z,0.51
2024-01-18T00:09:55.387Z,0.51
2024-01-18T00:10:55.405Z,0.51
2024-01-18T00:11:55.471Z,0.50
2024-01-18T00:12:55.393Z,0.51
2024-01-18T00:13:55.416Z,0.51
2024-01-18T00:14:55.487Z,0.50
2024-01-18T00:15:55.396Z,0.52
2024-01-18T00:16:55.408Z,0.51
2024-01-18T00:17:55.469Z,0.51
2024-01-18T00:18:55.598Z,0.50
2024-01-18T00:19:55.513Z,0.51
2024-01-18T00:20:55.528Z,0.51
2024-01-18T00:21:55.542Z,0.50
2024-01-18T00:22:55.564Z,0.50
2024-01-18T00:23:55.586Z,0.51
2024-01-18T00:24:55.579Z,0.51
2024-01-18T00:25:55.578Z,0.50
2024-01-18T00:26:55.659Z,0.51
2024-01-18T00:27:55.610Z,0.51
2024-01-18T00:28:55.640Z,0.51
2024-01-18T00:29:55.610Z,0.51
2024-01-18T00:30:55.608Z,0.51
2024-01-18T00:31:55.603Z,0.51
2024-01-18T00:32:55.638Z,0.51
2024-01-18T00:33:55.706Z,0.51
2024-01-18T00:34:55.618Z,0.50
2024-01-18T00:35:55.837Z,0.50
2024-01-18T00:36:55.661Z,0.50
2024-01-18T00:37:55.622Z,0.51
2024-01-18T00:38:55.854Z,0.51
2024-01-18T00:39:55.636Z,0.51
2024-01-18T00:40:55.654Z,0.51
2024-01-18T00:41:55.685Z,0.50
2024-01-18T00:42:55.662Z,0.50
2024-01-18T00:43:55.656Z,0.50
2024-01-18T00:44:55.721Z,0.50
2024-01-18T00:45:55.695Z,0.51
2024-01-18T00:46:55.699Z,0.50
2024-01-18T00:47:55.780Z,0.50
2024-01-18T00:48:55.802Z,0.50
2024-01-18T00:49:55.751Z,0.51
2024-01-18T00:50:55.768Z,0.50
2024-01-18T00:51:55.723Z,0.50
2024-01-18T00:52:55.741Z,0.51
2024-01-18T00:53:55.752Z,0.50
2024-01-18T00:54:55.735Z,0.51
2024-01-18T00:55:55.779Z,0.51
2024-01-18T00:56:55.808Z,0.51
2024-01-18T00:57:55.794Z,0.50
2024-01-18T00:58:55.802Z,0.50
2024-01-18T00:59:55.853Z,0.51
2024-01-18T01:00:55.898Z,0.51
2024-01-18T01:01:55.813Z,0.51
2024-01-18T01:02:55.882Z,0.50
2024-01-18T01:03:55.868Z,0.51
2024-01-18T01:04:55.832Z,0.50
2024-01-18T01:05:55.884Z,0.51
2024-01-18T01:06:55.850Z,0.50
2024-01-18T01:07:55.887Z,0.51
2024-01-18T01:08:55.902Z,0.50
2024-01-18T01:09:55.869Z,0.51
2024-01-18T01:10:55.877Z,0.51
2024-01-18T01:11:55.903Z,0.50
2024-01-18T01:12:55.881Z,0.51
2024-01-18T01:13:55.909Z,0.51
2024-01-18T01:14:55.922Z,0.51
2024-01-18T01:15:55.961Z,0.50
2024-01-18T01:16:55.921Z,0.51
2024-01-18T01:17:55.972Z,0.51
2024-01-18T01:18:55.988Z,0.51
2024-01-18T01:19:56.005Z,0.51
2024-01-18T01:20:55.944Z,0.50
2024-01-18T01:21:55.956Z,0.50
2024-01-18T01:22:55.968Z,0.50
2024-01-18T01:23:55.984Z,0.51
2024-01-18T01:24:55.998Z,0.51
2024-01-18T01:25:55.992Z,0.51
2024-01-18T01:26:56.027Z,0.51
2024-01-18T01:27:55.992Z,0.51
2024-01-18T01:28:56.035Z,0.51
2024-01-18T01:29:56.048Z,0.50
2024-01-18T01:30:56.002Z,0.51
2024-01-18T01:31:56.020Z,0.50
2024-01-18T01:32:56.196Z,0.50
2024-01-18T01:33:56.088Z,0.51
2024-01-18T01:34:56.087Z,0.51
2024-01-18T01:35:56.166Z,0.50
2024-01-18T01:36:56.108Z,0.50
2024-01-18T01:37:56.113Z,0.50
2024-01-18T01:38:56.204Z,0.51
2024-01-18T01:39:56.148Z,0.51
2024-01-18T01:40:56.156Z,0.51
2024-01-18T01:41:56.200Z,0.51
2024-01-18T01:42:56.167Z,0.50
2024-01-18T01:43:56.191Z,0.50
2024-01-18T01:44:56.266Z,0.50
2024-01-18T01:45:56.196Z,0.51
2024-01-18T01:46:56.224Z,0.51
2024-01-18T01:47:56.275Z,0.51
2024-01-18T01:48:56.316Z,0.51
2024-01-18T01:49:56.303Z,0.50
2024-01-18T01:50:56.301Z,0.50
2024-01-18T01:51:56.277Z,0.50
2024-01-18T01:52:56.273Z,0.50
2024-01-18T01:53:56.308Z,0.51
2024-01-18T01:54:56.282Z,0.51
2024-01-18T01:55:56.299Z,0.51
2024-01-18T01:56:56.341Z,0.51
2024-01-18T01:57:56.316Z,0.51
2024-01-18T01:58:56.353Z,0.51
2024-01-18T01:59:56.358Z,0.50
2024-01-18T02:00:56.502Z,0.50
2024-01-18T02:01:56.353Z,0.51
2024-01-18T02:02:56.398Z,0.51
2024-01-18T02:03:57.343Z,0.51
2024-01-18T02:04:56.425Z,0.50
2024-01-18T02:05:56.524Z,0.51
2024-01-18T02:06:56.446Z,0.51
2024-01-18T02:07:56.456Z,0.51
2024-01-18T02:08:56.548Z,0.50
2024-01-18T02:09:56.541Z,0.51
2024-01-18T02:10:56.472Z,0.50
2024-01-18T02:11:56.531Z,0.51
2024-01-18T02:12:56.509Z,0.50
2024-01-18T02:13:56.515Z,0.50
2024-01-18T02:14:56.578Z,0.51
2024-01-18T02:15:56.562Z,0.50
2024-01-18T02:16:56.541Z,0.51
2024-01-18T02:17:56.622Z,0.51
2024-01-18T02:18:56.643Z,0.51
2024-01-18T02:19:56.617Z,0.51
2024-01-18T02:20:56.640Z,0.50
2024-01-18T02:21:56.604Z,0.50
2024-01-18T02:22:56.605Z,0.51
2024-01-18T02:23:56.656Z,0.50
2024-01-18T02:24:56.626Z,0.51
2024-01-18T02:25:56.656Z,0.51
2024-01-18T02:26:56.698Z,0.50
2024-01-18T02:27:56.676Z,0.51
2024-01-18T02:28:56.766Z,0.51
2024-01-18T02:29:56.750Z,0.52
2024-01-18T02:30:56.707Z,0.51
2024-01-18T02:31:56.726Z,0.51
2024-01-18T02:32:56.895Z,0.51
2024-01-18T02:33:56.849Z,0.51
2024-01-18T02:34:56.754Z,0.50
2024-01-18T02:35:56.772Z,0.51
2024-01-18T02:36:56.796Z,0.51
2024-01-18T02:37:56.810Z,0.51
2024-01-18T02:38:56.866Z,0.51
2024-01-18T02:39:56.839Z,0.51
2024-01-18T02:40:56.843Z,0.51
2024-01-18T02:41:56.865Z,0.52
2024-01-18T02:42:56.862Z,0.51
2024-01-18T02:43:56.862Z,0.52
2024-01-18T02:44:56.889Z,0.50
2024-01-18T02:45:56.878Z,0.51
2024-01-18T02:46:56.905Z,0.51
2024-01-18T02:47:56.981Z,0.50
2024-01-18T02:48:57.002Z,0.51
2024-01-18T02:49:57.023Z,0.50
2024-01-18T02:50:56.997Z,0.51
2024-01-18T02:51:56.968Z,0.50
2024-01-18T02:52:56.988Z,0.51
2024-01-18T02:53:57.043Z,0.51
2024-01-18T02:54:57.018Z,0.51
2024-01-18T02:55:57.036Z,0.51
2024-01-18T02:56:57.084Z,0.51
2024-01-18T02:57:57.067Z,0.51
2024-01-18T02:58:57.090Z,0.52
2024-01-18T02:59:57.149Z,0.51
2024-01-18T03:00:57.180Z,0.51
2024-01-18T03:01:57.157Z,0.51
2024-01-18T03:02:57.306Z,0.51
2024-01-18T03:03:57.289Z,0.51
2024-01-18T03:04:57.175Z,0.51
2024-01-18T03:05:57.227Z,0.51
2024-01-18T03:06:57.197Z,0.51
2024-01-18T03:07:57.270Z,0.51
2024-01-18T03:08:57.270Z,0.51
2024-01-18T03:09:57.255Z,0.51
2024-01-18T03:10:57.277Z,0.51
2024-01-18T03:11:57.304Z,0.51
2024-01-18T03:12:57.311Z,0.50
2024-01-18T03:13:57.316Z,0.51
2024-01-18T03:14:57.422Z,0.51
2024-01-18T03:15:57.349Z,0.50
2024-01-18T03:16:57.356Z,0.51
2024-01-18T03:17:57.472Z,0.51
2024-01-18T03:18:57.517Z,0.51
2024-01-18T03:19:57.464Z,0.50
2024-01-18T03:20:57.462Z,0.51
2024-01-18T03:21:57.428Z,0.52
2024-01-18T03:22:57.433Z,0.51
2024-01-18T03:23:57.477Z,0.53
2024-01-18T03:24:57.478Z,0.51
2024-01-18T03:25:57.530Z,0.51
2024-01-18T03:26:57.537Z,0.51
2024-01-18T03:27:57.526Z,0.52
2024-01-18T03:28:57.558Z,0.51
2024-01-18T03:29:57.594Z,0.51
2024-01-18T03:30:57.604Z,0.50
2024-01-18T03:31:57.592Z,0.51
2024-01-18T03:32:57.699Z,0.51
2024-01-18T03:33:57.694Z,0.50
2024-01-18T03:34:57.654Z,0.51
2024-01-18T03:35:57.718Z,0.50
2024-01-18T03:36:57.697Z,0.51
2024-01-18T03:37:57.703Z,0.51
2024-01-18T03:38:57.756Z,0.51
2024-01-18T03:39:57.749Z,0.51
2024-01-18T03:40:57.757Z,0.51
2024-01-18T03:41:57.813Z,0.51
2024-01-18T03:42:57.786Z,0.51
2024-01-18T03:43:57.806Z,0.51
2024-01-18T03:44:57.891Z,0.50
2024-01-18T03:45:57.846Z,0.52
2024-01-18T03:46:57.858Z,0.51
2024-01-18T03:47:57.950Z,0.51
2024-01-18T03:48:57.983Z,0.51
2024-01-18T03:49:57.983Z,0.51
2024-01-18T03:50:58.012Z,0.51
2024-01-18T03:51:57.973Z,0.51
2024-01-18T03:52:57.965Z,0.51
2024-01-18T03:53:58.022Z,0.51
2024-01-18T03:54:57.979Z,0.51
2024-01-18T03:55:58.003Z,0.51
2024-01-18T03:56:58.034Z,0.51
2024-01-18T03:57:58.015Z,0.50
2024-01-18T03:58:58.019Z,0.51
2024-01-18T03:59:58.079Z,0.50
2024-01-18T04:00:58.217Z,0.50
2024-01-18T04:01:58.029Z,0.51
2024-01-18T04:02:58.151Z,0.51
2024-01-18T04:03:58.200Z,0.51
2024-01-18T04:04:58.114Z,0.52
2024-01-18T04:05:58.641Z,0.50
2024-01-18T04:06:58.241Z,0.50
2024-01-18T04:07:58.213Z,0.51
2024-01-18T04:08:58.284Z,0.52
2024-01-18T04:09:58.311Z,0.51
2024-01-18T04:10:58.342Z,0.51
2024-01-18T04:11:58.393Z,0.51
2024-01-18T04:12:58.421Z,0.51
2024-01-18T04:13:58.482Z,0.51
2024-01-18T04:14:58.583Z,0.50
2024-01-18T04:15:58.563Z,0.51
2024-01-18T04:16:58.589Z,0.51
2024-01-18T04:17:58.699Z,0.51
2024-01-18T04:18:58.765Z,0.50
2024-01-18T04:19:58.749Z,0.51
2024-01-18T04:20:58.835Z,0.51
2024-01-18T04:21:58.862Z,0.52
2024-01-18T04:22:58.868Z,0.51
2024-01-18T04:23:58.967Z,0.51
2024-01-18T04:24:58.975Z,0.51
2024-01-18T04:25:59.034Z,0.51
2024-01-18T04:26:59.120Z,0.50
2024-01-18T04:27:59.218Z,0.50
2024-01-18T04:28:59.223Z,0.50
2024-01-18T04:29:59.313Z,0.50
2024-01-18T04:30:59.308Z,0.51
2024-01-18T04:31:59.368Z,0.51
2024-01-18T04:32:59.511Z,0.51
2024-01-18T04:33:59.541Z,0.51
2024-01-18T04:34:59.602Z,0.50
2024-01-18T04:35:59.647Z,0.51
2024-01-18T04:36:59.710Z,0.50
2024-01-18T04:38:07.088Z,0.50
2024-01-18T04:39:07.152Z,0.50
2024-01-18T04:40:07.038Z,0.50
2024-01-18T04:41:06.972Z,0.50
2024-01-18T04:42:07.008Z,0.50
2024-01-18T04:43:06.986Z,0.50
2024-01-18T04:44:07.097Z,0.51
2024-01-18T04:45:07.005Z,0.51
2024-01-18T04:46:06.981Z,0.50
2024-01-18T04:47:06.964Z,0.50
2024-01-18T04:48:07.065Z,0.51
2024-01-18T04:49:07.142Z,0.50
2024-01-18T04:50:07.044Z,0.51
2024-01-18T04:51:07.020Z,0.51
2024-01-18T04:52:06.997Z,0.51
2024-01-18T04:53:06.997Z,0.50
2024-01-18T04:54:07.008Z,0.51
2024-01-18T04:55:06.991Z,0.51
2024-01-18T04:56:06.997Z,0.51
2024-01-18T04:57:07.019Z,0.51
2024-01-18T04:58:07.005Z,0.51
2024-01-18T04:59:07.011Z,0.51
2024-01-18T05:00:07.035Z,0.51
2024-01-18T05:01:07.063Z,0.51
2024-01-18T05:02:07.011Z,0.51
2024-01-18T05:03:07.030Z,0.50
2024-01-18T05:04:07.028Z,0.50
2024-01-18T05:05:07.063Z,0.51
2024-01-18T05:06:07.184Z,0.51
2024-01-18T05:07:07.228Z,0.51
2024-01-18T05:08:07.222Z,0.50
2024-01-18T05:09:07.322Z,0.52
2024-01-18T05:10:07.371Z,0.51
2024-01-18T05:11:07.411Z,0.51
2024-01-18T05:12:07.481Z,0.51
2024-01-18T05:13:07.549Z,0.50
2024-01-18T05:14:07.642Z,0.51
2024-01-18T05:15:07.692Z,0.51
2024-01-18T05:16:07.750Z,0.51
2024-01-18T05:17:07.813Z,0.51
2024-01-18T05:18:07.967Z,0.51
2024-01-18T05:19:07.967Z,0.50
2024-01-18T05:20:08.150Z,0.51
2024-01-18T05:21:08.154Z,0.50
2024-01-18T05:22:08.140Z,0.51
2024-01-18T05:23:08.232Z,0.50
2024-01-18T05:24:08.284Z,0.51
2024-01-18T05:25:08.333Z,0.50
2024-01-18T05:26:08.378Z,0.51
2024-01-18T05:27:08.462Z,0.51
2024-01-18T05:28:08.534Z,0.51
2024-01-18T05:29:08.613Z,0.50
2024-01-18T05:30:08.763Z,0.51
2024-01-18T05:31:08.688Z,0.51
2024-01-18T05:32:08.763Z,0.50
2024-01-18T05:33:08.880Z,0.50
2024-01-18T05:34:08.950Z,0.51
2024-01-18T05:35:08.937Z,0.51
2024-01-18T05:36:09.039Z,0.51
2024-01-18T05:37:09.075Z,0.51
2024-01-18T05:38:09.116Z,0.50
2024-01-18T05:39:09.196Z,0.51
2024-01-18T05:40:09.223Z,0.51
2024-01-18T05:41:09.324Z,0.51
2024-01-18T05:42:09.367Z,0.51
2024-01-18T05:43:09.426Z,0.51
2024-01-18T05:44:09.459Z,0.51
2024-01-18T05:45:09.510Z,0.51
2024-01-18T05:46:09.583Z,0.52
2024-01-18T05:47:09.615Z,0.51
2024-01-18T05:48:09.797Z,0.51
2024-01-18T05:49:09.918Z,0.51
2024-01-18T05:50:09.902Z,0.51
2024-01-18T05:51:09.902Z,0.51
2024-01-18T05:52:09.923Z,0.50
2024-01-18T05:53:09.994Z,0.51
2024-01-18T05:54:10.081Z,0.51
2024-01-18T05:55:10.115Z,0.51
2024-01-18T05:56:10.190Z,0.51
2024-01-18T05:57:10.313Z,0.51
2024-01-18T05:58:10.332Z,0.50
2024-01-18T05:59:10.350Z,0.51
2024-01-18T06:00:10.529Z,0.51
2024-01-18T06:01:10.554Z,0.51
2024-01-18T06:02:10.596Z,0.51
2024-01-18T06:03:10.650Z,0.51
2024-01-18T06:04:10.664Z,0.51
2024-01-18T06:05:12.690Z,0.50
2024-01-18T06:06:11.746Z,0.51
2024-01-18T06:07:10.893Z,0.51
2024-01-18T06:08:10.867Z,0.51
2024-01-18T06:09:10.978Z,0.51
2024-01-18T06:10:11.018Z,0.51
2024-01-18T06:11:11.087Z,0.51
2024-01-18T06:12:11.133Z,0.50
2024-01-18T06:13:11.171Z,0.50
2024-01-18T06:14:11.209Z,0.50
2024-01-18T06:15:11.263Z,0.51
2024-01-18T06:16:11.502Z,0.50
2024-01-18T06:17:11.352Z,0.51
2024-01-18T06:18:11.565Z,0.51
2024-01-18T06:19:11.653Z,0.50
2024-01-18T06:20:11.573Z,0.50
2024-01-18T06:21:11.590Z,0.50
2024-01-18T06:22:11.603Z,0.51
2024-01-18T06:23:11.659Z,0.50
2024-01-18T06:24:11.757Z,0.51
2024-01-18T06:25:11.746Z,0.51
2024-01-18T06:26:11.794Z,0.51
2024-01-18T06:27:11.854Z,0.51
2024-01-18T06:28:11.871Z,0.51
2024-01-18T06:29:11.960Z,0.50
2024-01-18T06:30:12.455Z,0.50
2024-01-18T06:31:12.024Z,0.50
2024-01-18T06:32:12.238Z,0.50
2024-01-18T06:33:12.190Z,0.51
2024-01-18T06:34:12.699Z,0.50
2024-01-18T06:35:12.193Z,0.50
2024-01-18T06:36:12.279Z,0.50
2024-01-18T06:37:12.311Z,0.50
2024-01-18T06:38:12.464Z,0.50
2024-01-18T06:39:12.443Z,0.51
2024-01-18T06:40:13.168Z,0.50
2024-01-18T06:41:12.576Z,0.51
2024-01-18T06:42:12.612Z,0.51
2024-01-18T06:43:12.629Z,0.52
2024-01-18T06:44:13.131Z,0.52
2024-01-18T06:45:12.763Z,0.52
2024-01-18T06:46:12.864Z,0.54
2024-01-18T06:47:13.001Z,0.54
2024-01-18T06:48:13.024Z,0.55
2024-01-18T06:49:13.120Z,0.54
2024-01-18T06:50:13.008Z,0.55
2024-01-18T06:51:13.082Z,0.55
2024-01-18T06:52:13.124Z,0.55
2024-01-18T06:53:13.197Z,0.55
2024-01-18T06:54:14.616Z,0.54
2024-01-18T06:55:13.429Z,0.55
2024-01-18T06:56:13.441Z,0.56
2024-01-18T06:57:13.512Z,0.56
2024-01-18T06:58:13.548Z,0.56
2024-01-18T06:59:13.620Z,0.57
2024-01-18T07:00:13.702Z,0.56
2024-01-18T07:01:14.280Z,0.56
2024-01-18T07:02:13.816Z,0.56
2024-01-18T07:03:15.694Z,0.57
2024-01-18T07:04:14.269Z,0.57
2024-01-18T07:05:13.998Z,0.58
2024-01-18T07:06:14.089Z,0.58
2024-01-18T07:07:14.089Z,0.58
2024-01-18T07:08:14.169Z,0.57
2024-01-18T07:09:14.240Z,0.57
2024-01-18T07:10:14.334Z,0.58
2024-01-18T07:11:14.352Z,0.58
2024-01-18T07:12:14.495Z,0.58
2024-01-18T07:13:14.495Z,0.57
2024-01-18T07:14:14.562Z,0.56
2024-01-18T07:15:14.683Z,0.56
2024-01-18T07:16:14.696Z,0.56
2024-01-18T07:17:14.766Z,0.56
2024-01-18T07:18:14.913Z,0.56
2024-01-18T07:19:15.256Z,0.55
2024-01-18T07:20:14.992Z,0.54
2024-01-18T07:21:15.083Z,0.55
2024-01-18T07:22:15.108Z,0.55
2024-01-18T07:23:15.170Z,0.55
2024-01-18T07:24:15.285Z,0.55
2024-01-18T07:25:16.704Z,0.54
2024-01-18T07:26:15.307Z,0.54
2024-01-18T07:27:15.322Z,0.55
2024-01-18T07:28:15.307Z,0.56
2024-01-18T07:29:15.299Z,0.56
2024-01-18T07:30:15.381Z,0.57
2024-01-18T07:31:15.303Z,0.56
2024-01-18T07:32:15.304Z,0.56
2024-01-18T07:33:15.458Z,0.56
2024-01-18T07:34:15.382Z,0.56
2024-01-18T07:35:15.318Z,0.56
2024-01-18T07:36:15.351Z,0.57
2024-01-18T07:37:15.315Z,0.55
2024-01-18T07:38:15.295Z,0.55
2024-01-18T07:39:15.370Z,0.55
2024-01-18T07:40:15.346Z,0.55
2024-01-18T07:41:15.335Z,0.55
2024-01-18T07:42:15.322Z,0.56
2024-01-18T07:43:15.311Z,0.57
2024-01-18T07:44:15.330Z,0.58
2024-01-18T07:45:15.467Z,0.59
2024-01-18T07:46:15.341Z,0.59
2024-01-18T07:47:15.363Z,0.58
2024-01-18T07:48:15.501Z,0.59
2024-01-18T07:49:15.709Z,0.58
2024-01-18T07:50:25.211Z,0.58
2024-01-18T07:51:16.464Z,0.58
2024-01-18T07:52:15.398Z,0.58
2024-01-18T07:53:15.371Z,0.58
2024-01-18T07:54:15.740Z,0.59
2024-01-18T07:55:16.012Z,0.62
2024-01-18T07:56:15.409Z,0.61
2024-01-18T07:57:15.354Z,0.65
2024-01-18T07:58:15.357Z,0.69
2024-01-18T07:59:15.345Z,0.69
2024-01-18T08:00:15.360Z,0.71
2024-01-18T08:01:15.416Z,0.72
2024-01-18T08:02:15.374Z,0.74
2024-01-18T08:03:15.406Z,0.77
2024-01-18T08:04:15.506Z,0.80
2024-01-18T08:05:15.478Z,0.84
2024-01-18T08:06:15.624Z,0.86
2024-01-18T08:07:15.654Z,0.88
2024-01-18T08:08:15.665Z,0.93
2024-01-18T08:09:15.737Z,0.92
2024-01-18T08:10:15.766Z,0.98
2024-01-18T08:11:15.829Z,1.03
2024-01-18T08:12:15.907Z,1.06
2024-01-18T08:13:15.955Z,1.08
2024-01-18T08:14:18.257Z,1.08
2024-01-18T08:15:16.071Z,1.13
2024-01-18T08:16:16.135Z,1.14
2024-01-18T08:17:16.142Z,1.19
2024-01-18T08:18:16.239Z,1.23
2024-01-18T08:19:16.385Z,1.29
2024-01-18T08:20:16.415Z,1.32
2024-01-18T08:21:16.386Z,1.37
2024-01-18T08:22:16.369Z,1.40
2024-01-18T08:23:16.395Z,1.49
2024-01-18T08:24:16.449Z,1.56
2024-01-18T08:25:16.442Z,1.57
2024-01-18T08:26:16.496Z,1.65
2024-01-18T08:27:16.527Z,1.70
2024-01-18T08:28:16.510Z,1.74
2024-01-18T08:29:16.694Z,1.86
2024-01-18T08:30:16.696Z,1.94
2024-01-18T08:31:16.596Z,1.96
2024-01-18T08:32:16.624Z,2.05
2024-01-18T08:33:16.820Z,2.10
2024-01-18T08:34:17.192Z,2.19
2024-01-18T08:35:16.701Z,2.20
2024-01-18T08:36:16.848Z,2.31
2024-01-18T08:37:16.859Z,2.32
2024-01-18T08:38:16.786Z,2.35
2024-01-18T08:39:16.842Z,2.42
2024-01-18T08:40:17.227Z,2.47
2024-01-18T08:41:16.879Z,2.48
2024-01-18T08:42:16.940Z,2.57
2024-01-18T08:43:16.967Z,2.60
2024-01-18T08:44:17.217Z,2.66
2024-01-18T08:45:17.204Z,2.64
2024-01-18T08:46:17.040Z,2.72
2024-01-18T08:47:20.339Z,2.73
2024-01-18T08:48:17.153Z,2.85
2024-01-18T08:49:17.165Z,2.96
2024-01-18T08:50:17.099Z,2.97
2024-01-18T08:51:17.776Z,2.98
2024-01-18T08:52:17.221Z,3.02
2024-01-18T08:53:17.120Z,3.00
2024-01-18T08:54:17.126Z,3.08
2024-01-18T08:55:17.113Z,3.08
2024-01-18T08:56:19.042Z,3.07
2024-01-18T08:57:19.479Z,3.07
2024-01-18T08:58:17.287Z,3.07
2024-01-18T08:59:17.329Z,3.08
2024-01-18T09:00:17.776Z,3.11
2024-01-18T09:01:17.506Z,3.16
2024-01-18T09:02:23.357Z,3.13
2024-01-18T09:03:20.096Z,3.13
2024-01-18T09:04:17.660Z,3.08
2024-01-18T09:05:17.555Z,3.15
2024-01-18T09:06:17.519Z,3.13
2024-01-18T09:07:17.538Z,3.15
2024-01-18T09:08:17.555Z,3.06
2024-01-18T09:09:17.604Z,3.17
2024-01-18T09:10:17.503Z,3.10
2024-01-18T09:11:17.498Z,3.06
2024-01-18T09:12:17.602Z,3.01
2024-01-18T09:13:20.403Z,3.05
2024-01-18T09:14:17.493Z,3.05
2024-01-18T09:15:17.632Z,3.05
2024-01-18T09:16:17.512Z,3.04
2024-01-18T09:17:17.525Z,3.06
2024-01-18T09:18:17.611Z,3.04
2024-01-18T09:19:17.593Z,3.03
2024-01-18T09:20:17.574Z,3.02
2024-01-18T09:21:17.555Z,2.94
2024-01-18T09:22:17.518Z,2.92
2024-01-18T09:23:17.512Z,2.97
2024-01-18T09:24:17.752Z,2.96
2024-01-18T09:25:17.605Z,2.94
2024-01-18T09:26:17.559Z,2.94
2024-01-18T09:27:17.550Z,3.04
2024-01-18T09:28:17.526Z,3.67
2024-01-18T09:29:17.730Z,4.02
2024-01-18T09:30:17.571Z,4.24
2024-01-18T09:31:30.352Z,4.04
2024-01-18T09:32:18.540Z,4.04
2024-01-18T09:33:17.753Z,3.75
2024-01-18T09:34:17.544Z,3.72
2024-01-18T09:35:17.564Z,3.66
2024-01-18T09:36:17.560Z,3.71
2024-01-18T09:37:17.554Z,3.71
2024-01-18T09:38:17.570Z,3.71
2024-01-18T09:39:18.036Z,3.62
2024-01-18T09:40:17.543Z,3.66
2024-01-18T09:41:17.625Z,3.62
2024-01-18T09:42:17.752Z,3.56
2024-01-18T09:43:18.928Z,3.48
2024-01-18T09:44:18.221Z,3.33
2024-01-18T09:45:17.869Z,3.14
2024-01-18T09:46:17.867Z,2.97
2024-01-18T09:47:17.901Z,2.80
2024-01-18T09:48:18.047Z,2.69
2024-01-18T09:49:18.018Z,2.63
2024-01-18T09:50:18.180Z,2.40
2024-01-18T09:51:18.186Z,2.30
2024-01-18T09:52:18.146Z,2.16
2024-01-18T09:53:18.156Z,1.99
2024-01-18T09:54:18.176Z,1.91
2024-01-18T09:55:18.215Z,1.83
2024-01-18T09:56:18.256Z,1.72
2024-01-18T09:57:18.299Z,1.65
2024-01-18T09:58:18.240Z,1.60
2024-01-18T09:59:18.325Z,1.56
2024-01-18T10:00:18.310Z,1.48
2024-01-18T10:01:18.344Z,1.43
2024-01-18T10:02:18.354Z,1.41
2024-01-18T10:03:18.537Z,1.36
2024-01-18T10:04:18.409Z,1.33
2024-01-18T10:05:18.481Z,1.25
2024-01-18T10:06:18.553Z,1.19
2024-01-18T10:07:18.746Z,1.17
2024-01-18T10:08:18.641Z,1.18
2024-01-18T10:09:18.672Z,1.13
2024-01-18T10:10:18.676Z,1.07
2024-01-18T10:11:18.732Z,1.05
2024-01-18T10:12:18.808Z,1.03
2024-01-18T10:13:18.822Z,1.01
2024-01-18T10:14:18.907Z,0.96
2024-01-18T10:15:18.943Z,0.94
2024-01-18T10:16:18.994Z,0.91
2024-01-18T10:17:19.034Z,0.88
2024-01-18T10:18:19.247Z,0.88
2024-01-18T10:19:19.152Z,0.82
2024-01-18T10:20:19.330Z,0.84
2024-01-18T10:21:19.297Z,0.83
2024-01-18T10:22:19.330Z,0.81
2024-01-18T10:23:19.412Z,0.79
2024-01-18T10:24:19.507Z,0.78
2024-01-18T10:25:19.522Z,0.76
2024-01-18T10:26:19.588Z,0.75
2024-01-18T10:27:19.702Z,0.73
2024-01-18T10:28:19.712Z,0.71
2024-01-18T10:29:19.792Z,0.71
2024-01-18T10:30:19.867Z,0.69
2024-01-18T10:31:19.903Z,0.68
2024-01-18T10:32:19.972Z,0.66
2024-01-18T10:33:20.152Z,0.66
2024-01-18T10:34:20.195Z,0.65
2024-01-18T10:35:20.151Z,0.65
2024-01-18T10:36:20.791Z,0.64
2024-01-18T10:37:20.269Z,0.64
2024-01-18T10:38:20.315Z,0.63
2024-01-18T10:39:20.410Z,0.66
2024-01-18T10:40:20.402Z,0.65
2024-01-18T10:41:20.460Z,0.65
2024-01-18T10:42:20.512Z,0.66
2024-01-18T10:43:20.552Z,0.67
2024-01-18T10:44:20.633Z,0.67
2024-01-18T10:45:20.677Z,0.67
2024-01-18T10:46:20.696Z,0.68
2024-01-18T10:47:20.804Z,0.67
2024-01-18T10:48:20.872Z,0.66
2024-01-18T10:49:20.927Z,0.65
2024-01-18T10:50:21.748Z,0.67
2024-01-18T10:51:20.982Z,0.66
2024-01-18T10:52:21.018Z,0.65
2024-01-18T10:53:21.111Z,0.64
2024-01-18T10:54:26.172Z,0.64
2024-01-18T10:55:22.151Z,0.64
2024-01-18T10:56:21.126Z,0.63
2024-01-18T10:57:21.135Z,0.63
2024-01-18T10:58:21.124Z,0.63
2024-01-18T10:59:21.142Z,0.64
2024-01-18T11:00:21.190Z,0.62
2024-01-18T11:01:21.212Z,0.62
2024-01-18T11:02:21.135Z,0.61
2024-01-18T11:03:21.181Z,0.61
2024-01-18T11:04:21.182Z,0.62
2024-01-18T11:05:21.182Z,0.61
2024-01-18T11:06:21.255Z,0.60
2024-01-18T11:07:21.318Z,0.59
2024-01-18T11:08:21.229Z,0.59
2024-01-18T11:09:21.330Z,0.59
2024-01-18T11:10:21.336Z,0.57
2024-01-18T11:11:21.362Z,0.58
2024-01-18T11:12:21.452Z,0.56
2024-01-18T11:13:21.479Z,0.54
2024-01-18T11:14:21.538Z,0.56
2024-01-18T11:15:21.694Z,0.55
2024-01-18T11:16:21.642Z,0.53
2024-01-18T11:17:21.724Z,0.54
2024-01-18T11:18:21.791Z,0.53
2024-01-18T11:19:22.001Z,0.52
2024-01-18T11:20:21.907Z,0.51
2024-01-18T11:21:21.960Z,0.51
2024-01-18T11:22:22.012Z,0.50
2024-01-18T11:23:22.090Z,0.51
2024-01-18T11:24:22.156Z,0.51
2024-01-18T11:25:22.281Z,0.50
2024-01-18T11:26:22.295Z,0.50
2024-01-18T11:27:22.434Z,0.51
2024-01-18T11:28:22.401Z,0.50
2024-01-18T11:29:22.499Z,0.51
2024-01-18T11:30:22.536Z,0.51
2024-01-18T11:31:22.546Z,0.53
2024-01-18T11:32:22.600Z,0.53
2024-01-18T11:33:22.829Z,0.51
2024-01-18T11:34:22.685Z,0.54
2024-01-18T11:35:22.813Z,0.55
2024-01-18T11:36:22.730Z,0.55
2024-01-18T11:37:22.732Z,0.56
2024-01-18T11:38:22.759Z,0.58
2024-01-18T11:39:22.789Z,0.59
2024-01-18T11:40:23.282Z,0.60
2024-01-18T11:41:22.782Z,0.63
2024-01-18T11:42:22.835Z,0.67
2024-01-18T11:43:22.815Z,0.68
2024-01-18T11:44:22.832Z,0.70
2024-01-18T11:45:22.997Z,0.71
2024-01-18T11:46:22.856Z,0.78
2024-01-18T11:47:22.855Z,0.84
2024-01-18T11:48:22.894Z,0.86
2024-01-18T11:49:22.985Z,0.85
2024-01-18T11:50:22.889Z,0.90
2024-01-18T11:51:22.910Z,0.89
2024-01-18T11:52:22.930Z,0.89
2024-01-18T11:53:22.893Z,0.91
2024-01-18T11:54:22.977Z,0.91
2024-01-18T11:55:22.960Z,0.91
2024-01-18T11:56:22.968Z,0.90
2024-01-18T11:57:23.161Z,0.92
2024-01-18T11:58:23.068Z,0.92
2024-01-18T11:59:23.309Z,0.91
2024-01-18T12:00:23.101Z,0.91
2024-01-18T12:01:23.150Z,0.92
2024-01-18T12:02:23.120Z,0.94
2024-01-18T12:03:23.220Z,0.94
2024-01-18T12:04:23.287Z,0.96
2024-01-18T12:05:23.778Z,0.98
2024-01-18T12:06:23.431Z,1.00
2024-01-18T12:07:23.723Z,1.01
2024-01-18T12:08:23.520Z,1.06
2024-01-18T12:09:23.657Z,1.09
2024-01-18T12:10:23.627Z,1.10
2024-01-18T12:11:23.671Z,1.13
2024-01-18T12:12:23.769Z,1.17
2024-01-18T12:13:23.812Z,1.20
2024-01-18T12:14:23.841Z,1.24
2024-01-18T12:15:23.924Z,1.28
2024-01-18T12:16:23.946Z,1.26
2024-01-18T12:17:24.024Z,1.32
2024-01-18T12:18:24.139Z,1.36
2024-01-18T12:19:24.159Z,1.40
2024-01-18T12:20:24.349Z,1.44
2024-01-18T12:21:24.606Z,1.47
2024-01-18T12:22:24.234Z,1.53
2024-01-18T12:23:24.274Z,1.57
2024-01-18T12:24:24.884Z,1.60
2024-01-18T12:25:24.393Z,1.63
2024-01-18T12:26:24.508Z,1.64
2024-01-18T12:27:24.661Z,1.68
2024-01-18T12:28:24.590Z,1.69
2024-01-18T12:29:24.658Z,1.71
2024-01-18T12:30:24.728Z,1.72
2024-01-18T12:31:24.846Z,1.71
2024-01-18T12:32:24.883Z,1.71
2024-01-18T12:33:24.998Z,1.70
2024-01-18T12:34:25.065Z,1.69
2024-01-18T12:35:25.037Z,1.71
2024-01-18T12:36:25.143Z,1.74
2024-01-18T12:37:25.184Z,1.72
2024-01-18T12:38:25.250Z,1.72
2024-01-18T12:39:25.334Z,1.72
2024-01-18T12:40:25.401Z,1.73
2024-01-18T12:41:25.504Z,1.69
2024-01-18T12:42:25.515Z,1.73
2024-01-18T12:43:25.549Z,1.68
2024-01-18T12:44:25.565Z,1.74
2024-01-18T12:45:25.652Z,1.71
2024-01-18T12:46:25.618Z,1.73
2024-01-18T12:47:25.735Z,1.71
2024-01-18T12:48:25.792Z,1.69
2024-01-18T12:49:25.787Z,1.72
2024-01-18T12:50:25.702Z,1.69
2024-01-18T12:51:25.700Z,1.70
2024-01-18T12:52:25.721Z,1.64
2024-01-18T12:53:25.742Z,1.74
2024-01-18T12:54:25.804Z,1.70
2024-01-18T12:55:25.721Z,1.68
2024-01-18T12:56:25.757Z,1.65
2024-01-18T12:57:25.722Z,1.69
2024-01-18T12:58:25.729Z,1.66
2024-01-18T12:59:25.738Z,1.65
2024-01-18T13:00:25.749Z,1.65
2024-01-18T13:01:25.849Z,1.64
2024-01-18T13:02:25.775Z,1.69
2024-01-18T13:03:25.790Z,1.65
2024-01-18T13:04:25.860Z,1.63
2024-01-18T13:05:25.819Z,1.63
2024-01-18T13:06:25.884Z,1.62
2024-01-18T13:07:25.941Z,1.63
2024-01-18T13:08:25.857Z,1.64
2024-01-18T13:09:25.939Z,1.64
2024-01-18T13:10:25.919Z,1.60
2024-01-18T13:11:25.926Z,1.61
2024-01-18T13:12:26.031Z,1.65
2024-01-18T13:13:25.944Z,1.59
2024-01-18T13:14:25.959Z,1.59
2024-01-18T13:15:26.004Z,1.59
2024-01-18T13:16:26.225Z,1.60
2024-01-18T13:17:26.041Z,1.55
2024-01-18T13:18:26.152Z,1.57
2024-01-18T13:19:26.316Z,1.61